Terminal Aerodrome Forecast
Issued by NWS King Salmon, AK

Home | Current Version | Previous Version | Text Only | Print | Product List | Glossary On
Versions: 1 2 3 4 5 6 7 8 9 10 11 12 13 14 15 16 17 18 19 20
000
FTAK31 PANC 181732
TAFAKN
TAF
PAKN 181732Z 1818/1918 15007KT P6SM FEW004 BKN080
     FM190300 15015G25KT P6SM -RASN BKN035 OVC060
     FM191000 16020G28KT 5SM -RA BR BKN010 OVC030=

USA.gov is the U.S. government's official web portal to all federal, state and local government web resources and services.